createdAt,value
2024-05-09T00:01:59.922Z,52.32
2024-05-09T00:07:05.148Z,52.29
2024-05-09T00:12:09.923Z,52.89
2024-05-09T00:17:14.629Z,53.08
2024-05-09T00:22:19.287Z,53.01
2024-05-09T00:27:23.915Z,53.05
2024-05-09T00:32:28.720Z,52.98
2024-05-09T00:37:33.366Z,53.22
2024-05-09T00:42:39.772Z,53.39
2024-05-09T00:47:46.477Z,53.60
2024-05-09T00:52:51.613Z,53.49
2024-05-09T00:57:56.428Z,53.61
2024-05-09T01:03:01.281Z,53.47
2024-05-09T01:08:07.808Z,53.63
2024-05-09T01:13:12.674Z,53.78
2024-05-09T01:18:17.954Z,53.78
2024-05-09T01:23:22.658Z,53.85
2024-05-09T01:28:27.212Z,54.01
2024-05-09T01:33:32.162Z,54.09
2024-05-09T01:38:37.152Z,54.08
2024-05-09T01:43:41.730Z,54.28
2024-05-09T01:48:46.963Z,54.68
2024-05-09T01:53:52.445Z,55.02
2024-05-09T01:58:56.978Z,55.09
2024-05-09T02:04:02.070Z,55.14
2024-05-09T02:09:06.811Z,55.51
2024-05-09T02:14:11.464Z,55.64
2024-05-09T02:19:16.161Z,55.53
2024-05-09T02:24:20.791Z,55.62
2024-05-09T02:29:25.396Z,55.46
2024-05-09T02:34:30.322Z,55.63
2024-05-09T02:39:35.451Z,55.54
2024-05-09T02:44:39.856Z,55.42
2024-05-09T02:49:44.340Z,55.46
2024-05-09T02:54:48.695Z,55.47
2024-05-09T02:59:53.200Z,55.62
2024-05-09T03:04:58.158Z,55.84
2024-05-09T03:10:03.500Z,55.61
2024-05-09T03:15:09.810Z,55.87
2024-05-09T03:20:20.588Z,55.94
2024-05-09T03:25:29.045Z,56.17
2024-05-09T03:30:40.340Z,56.41
2024-05-09T03:35:48.039Z,56.57
2024-05-09T03:40:53.383Z,56.58
2024-05-09T03:45:58.313Z,57.17
2024-05-09T03:51:03.061Z,57.56
2024-05-09T03:56:10.215Z,57.55
2024-05-09T04:01:15.043Z,57.93
2024-05-09T04:06:23.688Z,58.45
2024-05-09T04:11:28.432Z,58.55
2024-05-09T04:16:33.260Z,58.39
2024-05-09T04:21:38.061Z,58.15
2024-05-09T04:26:41.718Z,58.03
2024-05-09T04:31:46.399Z,58.76
2024-05-09T04:36:51.230Z,59.12
2024-05-09T04:41:56.736Z,59.80
2024-05-09T04:47:02.192Z,59.74
2024-05-09T04:52:08.312Z,59.91
2024-05-09T04:57:13.622Z,60.08
2024-05-09T05:02:18.975Z,60.00
2024-05-09T05:07:25.207Z,59.89
2024-05-09T05:12:50.221Z,59.33
2024-05-09T05:17:56.709Z,59.13
2024-05-09T05:23:02.379Z,58.61
2024-05-09T05:28:08.673Z,57.91
2024-05-09T05:33:15.697Z,57.19
2024-05-09T05:38:25.038Z,56.31
2024-05-09T05:43:32.848Z,55.34
2024-05-09T05:48:38.227Z,54.51
2024-05-09T05:53:44.413Z,53.96
2024-05-09T05:58:49.876Z,53.29
2024-05-09T06:03:55.524Z,52.61
2024-05-09T06:09:01.155Z,51.66
2024-05-09T06:14:06.667Z,51.08
2024-05-09T06:19:12.115Z,50.55
2024-05-09T06:24:17.777Z,50.13
2024-05-09T06:29:23.422Z,49.64
2024-05-09T06:34:29.351Z,49.12
2024-05-09T06:39:34.720Z,48.89
2024-05-09T06:44:40.077Z,47.67
2024-05-09T06:49:45.794Z,46.37
2024-05-09T06:54:51.195Z,45.84
2024-05-09T06:59:59.313Z,45.86
2024-05-09T07:05:05.413Z,44.52
2024-05-09T07:10:17.781Z,44.28
2024-05-09T07:15:27.768Z,44.91
2024-05-09T07:20:35.140Z,44.39
2024-05-09T07:25:41.932Z,43.88
2024-05-09T07:30:54.899Z,43.74
2024-05-09T07:36:00.202Z,42.97
2024-05-09T07:41:06.377Z,43.05
2024-05-09T07:47:14.103Z,42.64
2024-05-09T07:56:49.220Z,42.24
2024-05-09T08:01:54.826Z,41.75
2024-05-09T08:07:01.123Z,42.45
2024-05-09T08:12:08.882Z,41.94
2024-05-09T08:17:16.003Z,41.57
2024-05-09T08:22:21.680Z,41.34
2024-05-09T08:27:27.558Z,40.58
2024-05-09T08:32:34.650Z,40.42
2024-05-09T08:37:40.789Z,40.20
2024-05-09T08:42:50.710Z,40.11
2024-05-09T08:47:57.446Z,40.19
2024-05-09T08:53:03.847Z,40.16
2024-05-09T08:58:11.016Z,40.29
2024-05-09T09:03:19.204Z,40.51
2024-05-09T09:08:26.851Z,40.70
2024-05-09T09:13:32.672Z,40.30
2024-05-09T09:18:38.431Z,40.02
2024-05-09T09:23:45.421Z,40.28
2024-05-09T09:28:52.079Z,39.33
2024-05-09T09:33:56.881Z,39.41
2024-05-09T09:39:02.623Z,39.37
2024-05-09T09:44:10.761Z,39.22
2024-05-09T09:49:17.358Z,39.31
2024-05-09T09:54:23.322Z,39.02
2024-05-09T09:59:30.446Z,38.92
2024-05-09T10:04:36.929Z,38.92
2024-05-09T10:09:43.040Z,38.89
2024-05-09T10:14:49.398Z,38.60
2024-05-09T10:20:14.452Z,38.32
2024-05-09T10:25:27.265Z,38.07
2024-05-09T10:30:36.195Z,38.05
2024-05-09T10:35:53.047Z,37.99
2024-05-09T10:41:00.324Z,38.26
2024-05-09T10:46:07.436Z,37.74
2024-05-09T10:51:13.769Z,37.82
2024-05-09T10:56:19.926Z,37.52
2024-05-09T11:01:25.616Z,37.48
2024-05-09T11:06:31.673Z,37.26
2024-05-09T11:11:38.130Z,37.26
2024-05-09T11:16:44.406Z,37.01
2024-05-09T11:21:53.720Z,37.19
2024-05-09T11:27:01.108Z,37.26
2024-05-09T11:32:11.134Z,37.05
2024-05-09T11:37:16.844Z,36.56
2024-05-09T11:42:22.288Z,36.18
2024-05-09T11:47:28.693Z,36.01
2024-05-09T11:52:34.287Z,35.67
2024-05-09T11:57:39.853Z,35.64
2024-05-09T12:02:45.662Z,35.67
2024-05-09T12:07:51.782Z,35.50
2024-05-09T12:12:57.855Z,35.83
2024-05-09T12:18:04.374Z,35.85
2024-05-09T12:23:11.146Z,35.61
2024-05-09T12:28:18.122Z,35.66
2024-05-09T12:33:24.859Z,35.60
2024-05-09T12:38:31.187Z,35.46
2024-05-09T12:43:37.390Z,35.12
2024-05-09T12:48:43.805Z,34.79
2024-05-09T12:53:49.140Z,34.69
2024-05-09T12:58:54.571Z,34.47
2024-05-09T13:04:00.790Z,34.21
2024-05-09T13:09:06.420Z,34.24
2024-05-09T13:14:11.733Z,34.03
2024-05-09T13:19:17.668Z,34.10
2024-05-09T13:24:23.014Z,34.26
2024-05-09T13:29:28.342Z,34.50
2024-05-09T13:34:34.037Z,34.51
2024-05-09T13:39:39.454Z,34.46
2024-05-09T13:44:44.110Z,34.17
2024-05-09T13:49:49.292Z,33.98
2024-05-09T13:54:54.724Z,34.29
2024-05-09T14:00:00.361Z,34.37
2024-05-09T14:05:06.819Z,34.15
2024-05-09T14:10:22.479Z,34.13
2024-05-09T14:15:32.267Z,33.69
2024-05-09T14:20:38.675Z,33.73
2024-05-09T14:25:45.528Z,33.71
2024-05-09T14:30:52.219Z,34.21
2024-05-09T14:35:58.191Z,34.29
2024-05-09T14:41:03.698Z,34.07
2024-05-09T14:46:09.255Z,33.78
2024-05-09T14:51:16.031Z,34.08
2024-05-09T14:56:21.409Z,34.26
2024-05-09T15:01:27.769Z,34.65
2024-05-09T15:06:33.704Z,34.66
2024-05-09T15:11:39.813Z,34.78
2024-05-09T15:16:45.600Z,34.98
2024-05-09T15:21:51.248Z,34.89
2024-05-09T15:26:56.726Z,34.75
2024-05-09T15:32:02.129Z,34.46
2024-05-09T15:37:08.553Z,34.28
2024-05-09T15:42:14.065Z,34.30
2024-05-09T15:47:19.962Z,34.55
2024-05-09T15:52:25.268Z,34.63
2024-05-09T15:57:30.910Z,34.88
2024-05-09T16:02:36.531Z,34.94
2024-05-09T16:07:42.778Z,35.31
2024-05-09T16:12:48.807Z,35.54
2024-05-09T16:17:55.625Z,35.75
2024-05-09T16:23:01.824Z,35.89
2024-05-09T16:28:10.505Z,36.25
2024-05-09T16:33:18.973Z,36.44
2024-05-09T16:38:25.468Z,36.67
2024-05-09T16:43:30.903Z,36.90
2024-05-09T16:48:38.639Z,37.21
2024-05-09T16:53:44.064Z,37.51
2024-05-09T16:58:49.478Z,37.73
2024-05-09T17:03:55.289Z,38.12
2024-05-09T17:09:08.392Z,38.27
2024-05-09T17:14:17.183Z,38.38
2024-05-09T17:19:22.682Z,38.66
2024-05-09T17:24:28.392Z,38.85
2024-05-09T17:29:33.843Z,39.10
2024-05-09T17:34:39.352Z,39.22
2024-05-09T17:39:45.104Z,39.28
2024-05-09T17:44:50.576Z,39.31
2024-05-09T17:49:55.927Z,39.52
2024-05-09T17:55:01.560Z,40.05
2024-05-09T18:00:11.725Z,40.25
2024-05-09T18:05:19.803Z,40.65
2024-05-09T18:10:32.838Z,40.71
2024-05-09T18:15:44.571Z,41.21
2024-05-09T18:20:50.114Z,41.25
2024-05-09T18:25:56.691Z,41.46
2024-05-09T18:31:02.050Z,41.63
2024-05-09T18:36:10.024Z,41.76
2024-05-09T18:41:15.618Z,42.13
2024-05-09T18:46:20.336Z,42.22
2024-05-09T18:51:25.813Z,42.33
2024-05-09T18:56:31.126Z,42.54
2024-05-09T19:01:40.734Z,42.71
2024-05-09T19:06:46.351Z,43.10
2024-05-09T19:11:51.696Z,43.20
2024-05-09T19:16:57.302Z,43.50
2024-05-09T19:22:06.184Z,44.22
2024-05-09T19:27:12.782Z,44.46
2024-05-09T19:32:18.241Z,44.75
2024-05-09T19:37:22.908Z,44.84
2024-05-09T19:42:29.578Z,44.84
2024-05-09T19:47:35.634Z,45.24
2024-05-09T19:52:40.853Z,45.50
2024-05-09T19:57:46.318Z,45.74
2024-05-09T20:02:51.739Z,46.13
2024-05-09T20:07:58.080Z,46.50
2024-05-09T20:13:04.101Z,46.99
2024-05-09T20:18:10.127Z,47.44
2024-05-09T20:23:15.590Z,47.79
2024-05-09T20:28:21.468Z,47.74
2024-05-09T20:33:27.156Z,47.89
2024-05-09T20:38:33.128Z,48.26
2024-05-09T20:43:38.459Z,49.04
2024-05-09T20:48:44.082Z,49.57
2024-05-09T20:53:50.045Z,49.43
2024-05-09T20:58:55.323Z,49.52
2024-05-09T21:04:01.218Z,49.26
2024-05-09T21:09:06.015Z,49.69
2024-05-09T21:14:11.306Z,49.56
2024-05-09T21:19:17.034Z,49.59
2024-05-09T21:24:22.693Z,49.83
2024-05-09T21:29:28.583Z,49.76
2024-05-09T21:34:34.259Z,49.83
2024-05-09T21:39:40.282Z,50.06
2024-05-09T21:44:45.958Z,50.47
2024-05-09T21:49:51.516Z,50.70
2024-05-09T21:54:57.353Z,50.81
2024-05-09T22:00:05.666Z,50.98
2024-05-09T22:05:14.812Z,51.14
2024-05-09T22:10:26.246Z,51.45
2024-05-09T22:15:39.606Z,52.07
2024-05-09T22:20:46.728Z,52.30
2024-05-09T22:25:51.773Z,52.73
2024-05-09T22:30:58.486Z,53.10
2024-05-09T22:36:04.301Z,53.68
2024-05-09T22:41:10.307Z,53.83
2024-05-09T22:46:15.981Z,53.60
2024-05-09T22:51:21.817Z,53.66
2024-05-09T22:56:29.903Z,53.71
2024-05-09T23:01:35.514Z,54.25
2024-05-09T23:06:43.393Z,54.36
2024-05-09T23:11:49.191Z,54.60
2024-05-09T23:16:54.815Z,54.84
2024-05-09T23:22:00.561Z,54.62
2024-05-09T23:27:06.544Z,54.76
2024-05-09T23:32:13.058Z,55.06
2024-05-09T23:37:18.839Z,55.11
2024-05-09T23:42:24.737Z,55.26
2024-05-09T23:47:30.423Z,55.57
2024-05-09T23:52:36.137Z,55.84
2024-05-09T23:57:41.636Z,56.06
